sensor_id;sensor_type;location;lat;lon;timestamp;temperature;humidity
5711;DHT22;61291;52.524;13.422;2022-09-09T00:00:24;14.60;99.90
5711;DHT22;61291;52.524;13.422;2022-09-09T00:03:14;14.50;99.90
5711;DHT22;61291;52.524;13.422;2022-09-09T00:06:14;14.60;99.90
5711;DHT22;61291;52.524;13.422;2022-09-09T00:09:12;14.50;99.90
5711;DHT22;61291;52.524;13.422;2022-09-09T00:11:54;14.50;99.90
5711;DHT22;61291;52.524;13.422;2022-09-09T00:16:52;14.50;99.90
5711;DHT22;61291;52.524;13.422;2022-09-09T00:19:24;14.40;99.90
5711;DHT22;61291;52.524;13.422;2022-09-09T00:22:04;14.50;99.90
5711;DHT22;61291;52.524;13.422;2022-09-09T00:24:43;14.50;99.90
5711;DHT22;61291;52.524;13.422;2022-09-09T00:27:16;14.50;99.90
5711;DHT22;61291;52.524;13.422;2022-09-09T00:29:54;14.50;99.90
5711;DHT22;61291;52.524;13.422;2022-09-09T00:32:22;14.50;99.90
5711;DHT22;61291;52.524;13.422;2022-09-09T00:34:56;14.40;99.90
5711;DHT22;61291;52.524;13.422;2022-09-09T00:37:25;14.40;99.90
5711;DHT22;61291;52.524;13.422;2022-09-09T00:39:53;14.40;99.90
5711;DHT22;61291;52.524;13.422;2022-09-09T00:42:42;14.40;99.90
5711;DHT22;61291;52.524;13.422;2022-09-09T00:48:06;14.30;99.90
5711;DHT22;61291;52.524;13.422;2022-09-09T00:50:57;14.30;99.90
5711;DHT22;61291;52.524;13.422;2022-09-09T00:53:42;14.30;99.90
5711;DHT22;61291;52.524;13.422;2022-09-09T00:56:18;14.30;99.90
5711;DHT22;61291;52.524;13.422;2022-09-09T01:01:46;14.20;99.90
5711;DHT22;61291;52.524;13.422;2022-09-09T01:04:17;14.20;99.90
5711;DHT22;61291;52.524;13.422;2022-09-09T01:06:50;14.20;99.90
5711;DHT22;61291;52.524;13.422;2022-09-09T01:09:41;14.20;99.90
5711;DHT22;61291;52.524;13.422;2022-09-09T01:12:23;14.10;99.90
5711;DHT22;61291;52.524;13.422;2022-09-09T01:14:53;14.00;99.90
5711;DHT22;61291;52.524;13.422;2022-09-09T01:17:28;13.90;99.90
5711;DHT22;61291;52.524;13.422;2022-09-09T01:22:35;14.20;99.90
5711;DHT22;61291;52.524;13.422;2022-09-09T01:25:26;14.20;99.90
5711;DHT22;61291;52.524;13.422;2022-09-09T01:27:56;14.20;99.90
5711;DHT22;61291;52.524;13.422;2022-09-09T01:30:23;14.10;99.90
5711;DHT22;61291;52.524;13.422;2022-09-09T01:32:54;14.10;99.90
5711;DHT22;61291;52.524;13.422;2022-09-09T01:38:16;14.00;99.90
5711;DHT22;61291;52.524;13.422;2022-09-09T01:40:42;14.00;99.90
5711;DHT22;61291;52.524;13.422;2022-09-09T01:43:08;14.00;99.90
5711;DHT22;61291;52.524;13.422;2022-09-09T01:45:34;13.90;99.90
5711;DHT22;61291;52.524;13.422;2022-09-09T01:48:00;13.90;99.90
5711;DHT22;61291;52.524;13.422;2022-09-09T01:50:28;14.00;99.90
5711;DHT22;61291;52.524;13.422;2022-09-09T01:52:56;14.00;99.90
5711;DHT22;61291;52.524;13.422;2022-09-09T01:55:35;14.00;99.90
5711;DHT22;61291;52.524;13.422;2022-09-09T01:58:27;14.00;99.90
5711;DHT22;61291;52.524;13.422;2022-09-09T02:03:32;13.90;99.90
5711;DHT22;61291;52.524;13.422;2022-09-09T02:06:19;13.90;99.90
5711;DHT22;61291;52.524;13.422;2022-09-09T02:08:53;13.90;99.90
5711;DHT22;61291;52.524;13.422;2022-09-09T02:11:22;13.90;99.90
5711;DHT22;61291;52.524;13.422;2022-09-09T02:13:50;13.90;99.90
5711;DHT22;61291;52.524;13.422;2022-09-09T02:19:34;13.90;99.90
5711;DHT22;61291;52.524;13.422;2022-09-09T02:22:01;13.80;99.90
5711;DHT22;61291;52.524;13.422;2022-09-09T02:24:29;13.80;99.90
5711;DHT22;61291;52.524;13.422;2022-09-09T02:26:57;13.80;99.90
5711;DHT22;61291;52.524;13.422;2022-09-09T02:29:33;13.80;99.90
5711;DHT22;61291;52.524;13.422;2022-09-09T02:32:02;13.70;99.90
5711;DHT22;61291;52.524;13.422;2022-09-09T02:34:31;13.80;99.90
5711;DHT22;61291;52.524;13.422;2022-09-09T02:37:00;13.80;99.90
5711;DHT22;61291;52.524;13.422;2022-09-09T02:39:26;13.80;99.90
5711;DHT22;61291;52.524;13.422;2022-09-09T02:41:52;13.80;99.90
5711;DHT22;61291;52.524;13.422;2022-09-09T02:44:18;13.80;99.90
5711;DHT22;61291;52.524;13.422;2022-09-09T02:47:10;13.70;99.90
5711;DHT22;61291;52.524;13.422;2022-09-09T02:52:18;13.60;99.90
5711;DHT22;61291;52.524;13.422;2022-09-09T02:54:45;13.50;99.90
5711;DHT22;61291;52.524;13.422;2022-09-09T02:57:21;13.50;99.90
5711;DHT22;61291;52.524;13.422;2022-09-09T02:59:48;13.50;99.90
5711;DHT22;61291;52.524;13.422;2022-09-09T03:02:14;13.60;99.90
5711;DHT22;61291;52.524;13.422;2022-09-09T03:04:40;13.60;99.90
5711;DHT22;61291;52.524;13.422;2022-09-09T03:07:07;13.60;99.90
5711;DHT22;61291;52.524;13.422;2022-09-09T03:09:32;13.50;99.90
5711;DHT22;61291;52.524;13.422;2022-09-09T03:11:58;13.50;99.90
5711;DHT22;61291;52.524;13.422;2022-09-09T03:14:24;13.50;99.90
5711;DHT22;61291;52.524;13.422;2022-09-09T03:16:54;13.50;99.90
5711;DHT22;61291;52.524;13.422;2022-09-09T03:19:20;13.50;99.90
5711;DHT22;61291;52.524;13.422;2022-09-09T03:21:47;13.50;99.90
5711;DHT22;61291;52.524;13.422;2022-09-09T03:24:13;13.50;99.90
5711;DHT22;61291;52.524;13.422;2022-09-09T03:26:40;13.40;99.90
5711;DHT22;61291;52.524;13.422;2022-09-09T03:29:06;13.50;99.90
5711;DHT22;61291;52.524;13.422;2022-09-09T03:31:33;13.50;99.90
5711;DHT22;61291;52.524;13.422;2022-09-09T03:33:59;13.50;99.90
5711;DHT22;61291;52.524;13.422;2022-09-09T03:36:26;13.40;99.90
5711;DHT22;61291;52.524;13.422;2022-09-09T03:38:52;13.40;99.90
5711;DHT22;61291;52.524;13.422;2022-09-09T03:41:18;13.40;99.90
5711;DHT22;61291;52.524;13.422;2022-09-09T03:43:44;13.30;99.90
5711;DHT22;61291;52.524;13.422;2022-09-09T03:46:10;13.30;99.90
5711;DHT22;61291;52.524;13.422;2022-09-09T03:48:35;13.30;99.90
5711;DHT22;61291;52.524;13.422;2022-09-09T03:51:01;13.40;99.90
5711;DHT22;61291;52.524;13.422;2022-09-09T03:53:27;13.30;99.90
5711;DHT22;61291;52.524;13.422;2022-09-09T03:55:55;13.40;99.90
5711;DHT22;61291;52.524;13.422;2022-09-09T03:58:22;13.40;99.90
5711;DHT22;61291;52.524;13.422;2022-09-09T04:01:04;13.30;99.90
5711;DHT22;61291;52.524;13.422;2022-09-09T04:03:30;13.40;99.90
5711;DHT22;61291;52.524;13.422;2022-09-09T04:05:57;13.30;99.90
5711;DHT22;61291;52.524;13.422;2022-09-09T04:08:24;13.30;99.90
5711;DHT22;61291;52.524;13.422;2022-09-09T04:10:53;13.30;99.90
5711;DHT22;61291;52.524;13.422;2022-09-09T04:13:22;13.10;99.90
5711;DHT22;61291;52.524;13.422;2022-09-09T04:15:55;13.10;99.90
5711;DHT22;61291;52.524;13.422;2022-09-09T04:18:21;13.10;99.90
5711;DHT22;61291;52.524;13.422;2022-09-09T04:20:48;13.10;99.90
5711;DHT22;61291;52.524;13.422;2022-09-09T04:23:14;13.10;99.90
5711;DHT22;61291;52.524;13.422;2022-09-09T04:25:51;13.10;99.90
5711;DHT22;61291;52.524;13.422;2022-09-09T04:28:18;13.20;99.90
5711;DHT22;61291;52.524;13.422;2022-09-09T04:30:45;13.20;99.90
5711;DHT22;61291;52.524;13.422;2022-09-09T04:33:11;13.20;99.90
5711;DHT22;61291;52.524;13.422;2022-09-09T04:35:37;13.20;99.90
5711;DHT22;61291;52.524;13.422;2022-09-09T04:38:04;13.20;99.90
5711;DHT22;61291;52.524;13.422;2022-09-09T04:40:31;13.30;99.90
5711;DHT22;61291;52.524;13.422;2022-09-09T04:43:01;13.30;99.90
5711;DHT22;61291;52.524;13.422;2022-09-09T04:45:26;13.30;99.90
5711;DHT22;61291;52.524;13.422;2022-09-09T04:47:53;13.40;99.90
5711;DHT22;61291;52.524;13.422;2022-09-09T04:50:20;13.40;99.90
5711;DHT22;61291;52.524;13.422;2022-09-09T04:52:46;13.50;99.90
5711;DHT22;61291;52.524;13.422;2022-09-09T04:55:11;13.50;99.90
5711;DHT22;61291;52.524;13.422;2022-09-09T04:57:38;13.60;99.90
5711;DHT22;61291;52.524;13.422;2022-09-09T05:00:04;13.60;99.90
5711;DHT22;61291;52.524;13.422;2022-09-09T05:02:29;13.70;99.90
5711;DHT22;61291;52.524;13.422;2022-09-09T05:04:55;13.80;99.90
5711;DHT22;61291;52.524;13.422;2022-09-09T05:07:21;13.80;99.90
5711;DHT22;61291;52.524;13.422;2022-09-09T05:09:47;13.90;99.90
5711;DHT22;61291;52.524;13.422;2022-09-09T05:12:15;14.00;99.90
5711;DHT22;61291;52.524;13.422;2022-09-09T05:14:42;14.10;99.90
5711;DHT22;61291;52.524;13.422;2022-09-09T05:17:07;14.30;99.90
5711;DHT22;61291;52.524;13.422;2022-09-09T05:19:33;14.50;99.90
5711;DHT22;61291;52.524;13.422;2022-09-09T05:21:58;14.60;99.90
5711;DHT22;61291;52.524;13.422;2022-09-09T05:24:24;14.80;99.90
5711;DHT22;61291;52.524;13.422;2022-09-09T05:26:50;14.90;99.90
5711;DHT22;61291;52.524;13.422;2022-09-09T05:29:15;15.00;99.90
5711;DHT22;61291;52.524;13.422;2022-09-09T05:31:44;15.20;99.90
5711;DHT22;61291;52.524;13.422;2022-09-09T05:34:10;15.30;99.90
5711;DHT22;61291;52.524;13.422;2022-09-09T05:36:36;15.40;99.90
5711;DHT22;61291;52.524;13.422;2022-09-09T05:39:02;15.60;99.90
5711;DHT22;61291;52.524;13.422;2022-09-09T05:41:27;15.80;99.90
5711;DHT22;61291;52.524;13.422;2022-09-09T05:43:54;16.10;99.90
5711;DHT22;61291;52.524;13.422;2022-09-09T05:46:26;16.40;99.90
5711;DHT22;61291;52.524;13.422;2022-09-09T05:48:53;16.60;99.90
5711;DHT22;61291;52.524;13.422;2022-09-09T05:51:21;16.80;99.90
5711;DHT22;61291;52.524;13.422;2022-09-09T05:53:48;16.80;99.90
5711;DHT22;61291;52.524;13.422;2022-09-09T05:56:16;16.80;99.90
5711;DHT22;61291;52.524;13.422;2022-09-09T05:58:43;16.90;99.90
5711;DHT22;61291;52.524;13.422;2022-09-09T06:01:14;17.20;99.90
5711;DHT22;61291;52.524;13.422;2022-09-09T06:03:41;17.90;99.90
5711;DHT22;61291;52.524;13.422;2022-09-09T06:06:13;18.10;99.90
5711;DHT22;61291;52.524;13.422;2022-09-09T06:08:40;18.30;99.90
5711;DHT22;61291;52.524;13.422;2022-09-09T06:11:11;18.20;99.90
5711;DHT22;61291;52.524;13.422;2022-09-09T06:13:37;18.20;99.90
5711;DHT22;61291;52.524;13.422;2022-09-09T06:16:05;18.40;99.90
5711;DHT22;61291;52.524;13.422;2022-09-09T06:18:32;19.30;99.90
5711;DHT22;61291;52.524;13.422;2022-09-09T06:20:59;19.80;99.90
5711;DHT22;61291;52.524;13.422;2022-09-09T06:23:32;20.40;99.90
5711;DHT22;61291;52.524;13.422;2022-09-09T06:26:05;20.50;99.90
5711;DHT22;61291;52.524;13.422;2022-09-09T06:28:34;20.90;99.90
5711;DHT22;61291;52.524;13.422;2022-09-09T06:31:01;21.30;99.90
5711;DHT22;61291;52.524;13.422;2022-09-09T06:33:31;21.50;99.90
5711;DHT22;61291;52.524;13.422;2022-09-09T06:35:57;21.80;99.90
5711;DHT22;61291;52.524;13.422;2022-09-09T06:38:23;21.60;99.90
5711;DHT22;61291;52.524;13.422;2022-09-09T06:40:55;21.80;99.90
5711;DHT22;61291;52.524;13.422;2022-09-09T06:43:22;21.60;99.90
5711;DHT22;61291;52.524;13.422;2022-09-09T06:46:04;20.80;99.90
5711;DHT22;61291;52.524;13.422;2022-09-09T06:48:30;19.90;99.90
5711;DHT22;61291;52.524;13.422;2022-09-09T06:51:14;19.30;99.90
5711;DHT22;61291;52.524;13.422;2022-09-09T06:53:41;19.10;99.90
5711;DHT22;61291;52.524;13.422;2022-09-09T06:58:42;19.10;99.90
5711;DHT22;61291;52.524;13.422;2022-09-09T07:01:10;19.50;99.90
5711;DHT22;61291;52.524;13.422;2022-09-09T07:03:38;19.70;99.90
5711;DHT22;61291;52.524;13.422;2022-09-09T07:06:04;19.80;99.90
5711;DHT22;61291;52.524;13.422;2022-09-09T07:08:30;20.10;99.90
5711;DHT22;61291;52.524;13.422;2022-09-09T07:11:03;20.30;99.90
5711;DHT22;61291;52.524;13.422;2022-09-09T07:13:30;20.40;99.90
5711;DHT22;61291;52.524;13.422;2022-09-09T07:16:06;20.40;99.90
5711;DHT22;61291;52.524;13.422;2022-09-09T07:18:32;20.50;99.90
5711;DHT22;61291;52.524;13.422;2022-09-09T07:20:59;20.70;99.90
5711;DHT22;61291;52.524;13.422;2022-09-09T07:23:25;20.90;99.90
5711;DHT22;61291;52.524;13.422;2022-09-09T07:25:51;21.10;99.90
5711;DHT22;61291;52.524;13.422;2022-09-09T07:28:18;20.90;99.90
5711;DHT22;61291;52.524;13.422;2022-09-09T07:30:53;20.70;99.90
5711;DHT22;61291;52.524;13.422;2022-09-09T07:33:18;20.30;99.90
5711;DHT22;61291;52.524;13.422;2022-09-09T07:35:45;20.00;99.90
5711;DHT22;61291;52.524;13.422;2022-09-09T07:38:11;20.00;99.90
5711;DHT22;61291;52.524;13.422;2022-09-09T07:40:36;20.00;99.90
5711;DHT22;61291;52.524;13.422;2022-09-09T07:43:02;20.00;99.90
5711;DHT22;61291;52.524;13.422;2022-09-09T07:45:27;20.20;99.90
5711;DHT22;61291;52.524;13.422;2022-09-09T07:47:54;20.30;99.90
5711;DHT22;61291;52.524;13.422;2022-09-09T07:50:22;20.50;99.90
5711;DHT22;61291;52.524;13.422;2022-09-09T07:52:49;20.70;99.90
5711;DHT22;61291;52.524;13.422;2022-09-09T07:55:14;21.00;99.90
5711;DHT22;61291;52.524;13.422;2022-09-09T07:57:40;21.20;99.90
5711;DHT22;61291;52.524;13.422;2022-09-09T08:00:06;21.40;99.90
5711;DHT22;61291;52.524;13.422;2022-09-09T08:02:32;21.70;99.90
5711;DHT22;61291;52.524;13.422;2022-09-09T08:04:58;21.80;99.90
5711;DHT22;61291;52.524;13.422;2022-09-09T08:07:23;22.00;99.90
5711;DHT22;61291;52.524;13.422;2022-09-09T08:09:49;22.00;99.90
5711;DHT22;61291;52.524;13.422;2022-09-09T08:12:15;22.00;99.90
5711;DHT22;61291;52.524;13.422;2022-09-09T08:14:41;21.90;99.90
5711;DHT22;61291;52.524;13.422;2022-09-09T08:17:10;21.80;99.90
5711;DHT22;61291;52.524;13.422;2022-09-09T08:19:35;21.40;99.90
5711;DHT22;61291;52.524;13.422;2022-09-09T08:22:01;21.30;99.90
5711;DHT22;61291;52.524;13.422;2022-09-09T08:24:28;21.30;99.90
5711;DHT22;61291;52.524;13.422;2022-09-09T08:26:53;21.30;99.90
5711;DHT22;61291;52.524;13.422;2022-09-09T08:29:19;21.20;99.90
5711;DHT22;61291;52.524;13.422;2022-09-09T08:31:47;21.00;99.90
5711;DHT22;61291;52.524;13.422;2022-09-09T08:34:13;20.90;99.90
5711;DHT22;61291;52.524;13.422;2022-09-09T08:36:43;20.80;99.90
5711;DHT22;61291;52.524;13.422;2022-09-09T08:39:10;20.80;99.90
5711;DHT22;61291;52.524;13.422;2022-09-09T08:42:00;20.80;99.90
5711;DHT22;61291;52.524;13.422;2022-09-09T08:45:09;20.80;99.90
5711;DHT22;61291;52.524;13.422;2022-09-09T08:48:09;20.80;99.90
5711;DHT22;61291;52.524;13.422;2022-09-09T08:50:39;20.80;99.90
5711;DHT22;61291;52.524;13.422;2022-09-09T08:53:19;20.90;99.90
5711;DHT22;61291;52.524;13.422;2022-09-09T08:56:01;21.00;99.90
5711;DHT22;61291;52.524;13.422;2022-09-09T08:58:31;21.10;99.90
5711;DHT22;61291;52.524;13.422;2022-09-09T09:04:00;21.70;99.90
5711;DHT22;61291;52.524;13.422;2022-09-09T09:09:14;22.30;99.90
5711;DHT22;61291;52.524;13.422;2022-09-09T09:11:48;22.70;99.90
5711;DHT22;61291;52.524;13.422;2022-09-09T09:14:23;23.10;99.90
5711;DHT22;61291;52.524;13.422;2022-09-09T09:16:54;23.40;99.90
5711;DHT22;61291;52.524;13.422;2022-09-09T09:19:22;23.90;99.90
5711;DHT22;61291;52.524;13.422;2022-09-09T09:22:04;24.40;99.90
5711;DHT22;61291;52.524;13.422;2022-09-09T09:24:53;24.90;99.90
5711;DHT22;61291;52.524;13.422;2022-09-09T09:29:51;25.90;99.90
5711;DHT22;61291;52.524;13.422;2022-09-09T09:32:20;26.10;99.90
5711;DHT22;61291;52.524;13.422;2022-09-09T09:34:56;26.30;99.20
5711;DHT22;61291;52.524;13.422;2022-09-09T09:37:28;26.40;97.80
5711;DHT22;61291;52.524;13.422;2022-09-09T09:39:54;26.10;97.10
5711;DHT22;61291;52.524;13.422;2022-09-09T09:42:20;25.80;96.80
5711;DHT22;61291;52.524;13.422;2022-09-09T09:44:46;25.60;96.60
5711;DHT22;61291;52.524;13.422;2022-09-09T09:47:13;25.40;96.60
5711;DHT22;61291;52.524;13.422;2022-09-09T09:49:50;25.20;96.60
5711;DHT22;61291;52.524;13.422;2022-09-09T09:52:19;24.70;96.90
5711;DHT22;61291;52.524;13.422;2022-09-09T09:54:46;24.30;96.80
5711;DHT22;61291;52.524;13.422;2022-09-09T09:57:14;23.90;97.00
5711;DHT22;61291;52.524;13.422;2022-09-09T09:59:41;23.60;97.50
5711;DHT22;61291;52.524;13.422;2022-09-09T10:04:38;23.40;97.90
5711;DHT22;61291;52.524;13.422;2022-09-09T10:07:17;23.40;98.90
5711;DHT22;61291;52.524;13.422;2022-09-09T10:09:43;23.30;99.10
5711;DHT22;61291;52.524;13.422;2022-09-09T10:17:40;23.00;99.10
5711;DHT22;61291;52.524;13.422;2022-09-09T10:20:45;22.80;99.00
5711;DHT22;61291;52.524;13.422;2022-09-09T10:23:23;22.90;99.10
5711;DHT22;61291;52.524;13.422;2022-09-09T10:26:28;23.20;99.00
5711;DHT22;61291;52.524;13.422;2022-09-09T10:31:49;23.70;99.10
5711;DHT22;61291;52.524;13.422;2022-09-09T10:34:36;23.80;98.80
5711;DHT22;61291;52.524;13.422;2022-09-09T10:37:23;23.80;98.80
5711;DHT22;61291;52.524;13.422;2022-09-09T10:40:02;23.70;98.60
5711;DHT22;61291;52.524;13.422;2022-09-09T10:42:31;23.70;98.60
5711;DHT22;61291;52.524;13.422;2022-09-09T10:45:18;23.50;98.40
5711;DHT22;61291;52.524;13.422;2022-09-09T10:51:02;24.00;98.10
5711;DHT22;61291;52.524;13.422;2022-09-09T10:56:21;24.00;97.10
5711;DHT22;61291;52.524;13.422;2022-09-09T10:58:54;23.80;97.20
5711;DHT22;61291;52.524;13.422;2022-09-09T11:01:28;23.90;97.20
5711;DHT22;61291;52.524;13.422;2022-09-09T11:04:01;24.20;97.00
5711;DHT22;61291;52.524;13.422;2022-09-09T11:06:37;24.40;96.70
5711;DHT22;61291;52.524;13.422;2022-09-09T11:09:05;24.50;96.50
5711;DHT22;61291;52.524;13.422;2022-09-09T11:11:44;24.40;96.40
5711;DHT22;61291;52.524;13.422;2022-09-09T11:14:18;24.20;95.90
5711;DHT22;61291;52.524;13.422;2022-09-09T11:16:47;24.00;96.20
5711;DHT22;61291;52.524;13.422;2022-09-09T11:19:25;23.80;96.20
5711;DHT22;61291;52.524;13.422;2022-09-09T11:21:53;23.80;96.40
5711;DHT22;61291;52.524;13.422;2022-09-09T11:24:40;23.80;96.50
5711;DHT22;61291;52.524;13.422;2022-09-09T11:38:44;24.10;96.20
5711;DHT22;61291;52.524;13.422;2022-09-09T11:41:11;24.40;96.20
5711;DHT22;61291;52.524;13.422;2022-09-09T11:43:45;24.70;95.90
5711;DHT22;61291;52.524;13.422;2022-09-09T11:46:13;24.80;95.70
5711;DHT22;61291;52.524;13.422;2022-09-09T11:48:42;24.80;95.30
5711;DHT22;61291;52.524;13.422;2022-09-09T11:51:12;25.10;95.10
5711;DHT22;61291;52.524;13.422;2022-09-09T11:53:57;25.30;94.70
5711;DHT22;61291;52.524;13.422;2022-09-09T11:56:42;25.60;94.10
5711;DHT22;61291;52.524;13.422;2022-09-09T11:59:27;25.80;93.90
5711;DHT22;61291;52.524;13.422;2022-09-09T12:07:05;25.60;93.40
5711;DHT22;61291;52.524;13.422;2022-09-09T12:09:56;25.60;93.10
5711;DHT22;61291;52.524;13.422;2022-09-09T12:12:32;25.60;93.20
5711;DHT22;61291;52.524;13.422;2022-09-09T12:17:47;25.70;92.10
5711;DHT22;61291;52.524;13.422;2022-09-09T12:20:14;25.60;92.10
5711;DHT22;61291;52.524;13.422;2022-09-09T12:23:02;25.60;91.40
5711;DHT22;61291;52.524;13.422;2022-09-09T12:28:49;25.40;91.70
5711;DHT22;61291;52.524;13.422;2022-09-09T12:37:21;24.60;91.80
5711;DHT22;61291;52.524;13.422;2022-09-09T12:39:53;24.60;91.80
5711;DHT22;61291;52.524;13.422;2022-09-09T12:42:21;24.60;91.70
5711;DHT22;61291;52.524;13.422;2022-09-09T12:44:52;24.50;91.60
5711;DHT22;61291;52.524;13.422;2022-09-09T12:47:20;24.50;91.60
5711;DHT22;61291;52.524;13.422;2022-09-09T12:49:47;24.50;91.70
5711;DHT22;61291;52.524;13.422;2022-09-09T12:52:31;24.70;91.60
5711;DHT22;61291;52.524;13.422;2022-09-09T12:54:59;24.90;91.50
5711;DHT22;61291;52.524;13.422;2022-09-09T12:57:35;24.90;91.10
5711;DHT22;61291;52.524;13.422;2022-09-09T13:02:46;25.20;90.90
5711;DHT22;61291;52.524;13.422;2022-09-09T13:05:26;25.30;90.30
5711;DHT22;61291;52.524;13.422;2022-09-09T13:08:00;25.50;90.40
5711;DHT22;61291;52.524;13.422;2022-09-09T13:10:29;25.80;90.10
5711;DHT22;61291;52.524;13.422;2022-09-09T13:12:57;25.90;89.80
5711;DHT22;61291;52.524;13.422;2022-09-09T13:15:25;26.20;89.70
5711;DHT22;61291;52.524;13.422;2022-09-09T13:17:57;26.30;89.10
5711;DHT22;61291;52.524;13.422;2022-09-09T13:20:24;26.50;88.70
5711;DHT22;61291;52.524;13.422;2022-09-09T13:22:52;26.60;88.60
5711;DHT22;61291;52.524;13.422;2022-09-09T13:25:29;26.60;87.90
5711;DHT22;61291;52.524;13.422;2022-09-09T13:27:58;26.70;88.10
5711;DHT22;61291;52.524;13.422;2022-09-09T13:30:27;26.60;87.50
5711;DHT22;61291;52.524;13.422;2022-09-09T13:35:30;26.60;86.60
5711;DHT22;61291;52.524;13.422;2022-09-09T13:37:57;26.50;86.50
5711;DHT22;61291;52.524;13.422;2022-09-09T13:40:24;26.60;86.30
5711;DHT22;61291;52.524;13.422;2022-09-09T13:42:56;26.70;85.40
5711;DHT22;61291;52.524;13.422;2022-09-09T13:45:24;26.80;84.80
5711;DHT22;61291;52.524;13.422;2022-09-09T13:47:53;26.90;83.90
5711;DHT22;61291;52.524;13.422;2022-09-09T13:52:47;27.40;83.70
5711;DHT22;61291;52.524;13.422;2022-09-09T13:55:13;27.50;83.00
5711;DHT22;61291;52.524;13.422;2022-09-09T13:57:38;27.70;82.30
5711;DHT22;61291;52.524;13.422;2022-09-09T14:00:04;28.00;81.90
5711;DHT22;61291;52.524;13.422;2022-09-09T14:02:31;28.20;81.30
5711;DHT22;61291;52.524;13.422;2022-09-09T14:04:56;28.10;80.50
5711;DHT22;61291;52.524;13.422;2022-09-09T14:07:22;28.00;79.50
5711;DHT22;61291;52.524;13.422;2022-09-09T14:09:47;27.70;79.00
5711;DHT22;61291;52.524;13.422;2022-09-09T14:12:15;27.40;78.80
5711;DHT22;61291;52.524;13.422;2022-09-09T14:14:41;27.20;78.70
5711;DHT22;61291;52.524;13.422;2022-09-09T14:17:08;27.10;79.10
5711;DHT22;61291;52.524;13.422;2022-09-09T14:19:33;26.90;79.10
5711;DHT22;61291;52.524;13.422;2022-09-09T14:21:59;27.00;79.70
5711;DHT22;61291;52.524;13.422;2022-09-09T14:24:25;27.40;79.90
5711;DHT22;61291;52.524;13.422;2022-09-09T14:26:51;27.80;79.30
5711;DHT22;61291;52.524;13.422;2022-09-09T14:29:17;28.10;78.90
5711;DHT22;61291;52.524;13.422;2022-09-09T14:31:42;28.10;78.90
5711;DHT22;61291;52.524;13.422;2022-09-09T14:34:07;27.80;78.60
5711;DHT22;61291;52.524;13.422;2022-09-09T14:36:36;27.70;78.40
5711;DHT22;61291;52.524;13.422;2022-09-09T14:39:02;27.50;78.80
5711;DHT22;61291;52.524;13.422;2022-09-09T14:41:27;27.40;79.00
5711;DHT22;61291;52.524;13.422;2022-09-09T14:43:54;27.40;79.20
5711;DHT22;61291;52.524;13.422;2022-09-09T14:46:20;27.20;79.20
5711;DHT22;61291;52.524;13.422;2022-09-09T14:48:46;26.90;79.00
5711;DHT22;61291;52.524;13.422;2022-09-09T14:51:24;26.70;79.40
5711;DHT22;61291;52.524;13.422;2022-09-09T14:53:54;26.40;80.10
5711;DHT22;61291;52.524;13.422;2022-09-09T14:56:23;26.10;80.80
5711;DHT22;61291;52.524;13.422;2022-09-09T14:58:49;25.80;81.40
5711;DHT22;61291;52.524;13.422;2022-09-09T15:01:18;25.40;82.10
5711;DHT22;61291;52.524;13.422;2022-09-09T15:03:50;25.10;82.90
5711;DHT22;61291;52.524;13.422;2022-09-09T15:06:16;25.00;83.60
5711;DHT22;61291;52.524;13.422;2022-09-09T15:08:44;25.00;83.40
5711;DHT22;61291;52.524;13.422;2022-09-09T15:11:11;25.00;83.30
5711;DHT22;61291;52.524;13.422;2022-09-09T15:13:39;25.00;83.30
5711;DHT22;61291;52.524;13.422;2022-09-09T15:16:10;25.10;83.30
5711;DHT22;61291;52.524;13.422;2022-09-09T15:18:35;25.10;82.90
5711;DHT22;61291;52.524;13.422;2022-09-09T15:21:04;25.20;82.60
5711;DHT22;61291;52.524;13.422;2022-09-09T15:23:33;25.50;80.90
5711;DHT22;61291;52.524;13.422;2022-09-09T15:25:59;25.70;81.10
5711;DHT22;61291;52.524;13.422;2022-09-09T15:28:24;26.00;80.90
5711;DHT22;61291;52.524;13.422;2022-09-09T15:30:51;25.90;80.30
5711;DHT22;61291;52.524;13.422;2022-09-09T15:33:18;25.90;80.20
5711;DHT22;61291;52.524;13.422;2022-09-09T15:35:45;25.80;80.00
5711;DHT22;61291;52.524;13.422;2022-09-09T15:38:11;25.60;79.70
5711;DHT22;61291;52.524;13.422;2022-09-09T15:40:38;25.30;79.60
5711;DHT22;61291;52.524;13.422;2022-09-09T15:43:05;25.00;80.10
5711;DHT22;61291;52.524;13.422;2022-09-09T15:45:31;24.60;80.10
5711;DHT22;61291;52.524;13.422;2022-09-09T15:47:59;24.20;80.00
5711;DHT22;61291;52.524;13.422;2022-09-09T15:50:25;23.90;80.20
5711;DHT22;61291;52.524;13.422;2022-09-09T15:52:51;23.60;80.90
5711;DHT22;61291;52.524;13.422;2022-09-09T15:55:18;23.20;81.50
5711;DHT22;61291;52.524;13.422;2022-09-09T15:57:46;22.90;82.00
5711;DHT22;61291;52.524;13.422;2022-09-09T16:00:12;22.70;82.30
5711;DHT22;61291;52.524;13.422;2022-09-09T16:02:39;22.60;82.60
5711;DHT22;61291;52.524;13.422;2022-09-09T16:05:05;22.50;82.70
5711;DHT22;61291;52.524;13.422;2022-09-09T16:07:31;22.50;83.00
5711;DHT22;61291;52.524;13.422;2022-09-09T16:09:56;22.30;83.30
5711;DHT22;61291;52.524;13.422;2022-09-09T16:12:21;22.30;83.30
5711;DHT22;61291;52.524;13.422;2022-09-09T16:14:47;22.40;83.50
5711;DHT22;61291;52.524;13.422;2022-09-09T16:17:13;22.50;84.00
5711;DHT22;61291;52.524;13.422;2022-09-09T16:19:39;22.60;84.00
5711;DHT22;61291;52.524;13.422;2022-09-09T16:22:05;22.60;83.90
5711;DHT22;61291;52.524;13.422;2022-09-09T16:24:31;22.70;84.00
5711;DHT22;61291;52.524;13.422;2022-09-09T16:26:57;22.80;84.00
5711;DHT22;61291;52.524;13.422;2022-09-09T16:29:23;22.90;84.10
5711;DHT22;61291;52.524;13.422;2022-09-09T16:31:50;22.80;84.20
5711;DHT22;61291;52.524;13.422;2022-09-09T16:34:16;22.70;84.30
5711;DHT22;61291;52.524;13.422;2022-09-09T16:36:43;22.70;85.00
5711;DHT22;61291;52.524;13.422;2022-09-09T16:39:14;22.60;85.10
5711;DHT22;61291;52.524;13.422;2022-09-09T16:41:41;22.50;85.60
5711;DHT22;61291;52.524;13.422;2022-09-09T16:44:09;22.40;85.60
5711;DHT22;61291;52.524;13.422;2022-09-09T16:46:37;22.30;85.60
5711;DHT22;61291;52.524;13.422;2022-09-09T16:49:05;22.30;86.00
5711;DHT22;61291;52.524;13.422;2022-09-09T16:51:50;22.10;86.00
5711;DHT22;61291;52.524;13.422;2022-09-09T16:54:19;22.10;86.60
5711;DHT22;61291;52.524;13.422;2022-09-09T16:56:46;21.90;86.70
5711;DHT22;61291;52.524;13.422;2022-09-09T16:59:18;21.80;87.60
5711;DHT22;61291;52.524;13.422;2022-09-09T17:01:46;21.70;87.40
5711;DHT22;61291;52.524;13.422;2022-09-09T17:04:15;21.60;87.70
5711;DHT22;61291;52.524;13.422;2022-09-09T17:06:46;21.40;88.40
5711;DHT22;61291;52.524;13.422;2022-09-09T17:09:12;21.30;89.80
5711;DHT22;61291;52.524;13.422;2022-09-09T17:11:39;21.10;90.30
5711;DHT22;61291;52.524;13.422;2022-09-09T17:14:05;21.00;90.90